Time;durP1;ratioP1;P1;durP2;ratioP2;P2;SDS_P1;SDS_P2;PMS_P1;PMS_P2;Temp;Humidity;BMP_temperature;BMP_pressure;BME280_temperature;BME280_humidity;BME280_pressure;Samples;Min_cycle;Max_cycle;Signal;HPM_P1;HPM_P2
2021/12/07 00:01:28;;;;;;;6.97;3.97;;;;;;;;;;5082093;28;20048;-74
2021/12/07 00:03:57;;;;;;;6.68;3.20;;;;;;;;;;5054091;28;20056;-74
2021/12/07 00:06:26;;;;;;;7.75;3.70;;;;;;;;;;5060101;28;20047;-74
2021/12/07 00:08:56;;;;;;;7.65;2.83;;;;;;;;;;5069212;28;20053;-74
2021/12/07 00:11:25;;;;;;;7.85;3.40;;;;;;;;;;5090989;28;20504;-74
2021/12/07 00:13:56;;;;;;;8.60;3.93;;;;;;;;;;5058611;28;20092;-74
2021/12/07 00:16:26;;;;;;;9.30;4.22;;;;;;;;;;5085578;28;20040;-74
2021/12/07 00:18:57;;;;;;;10.05;3.70;;;;;;;;;;5084132;28;20421;-74
2021/12/07 00:21:27;;;;;;;10.32;3.90;;;;;;;;;;5094352;28;20048;-74
2021/12/07 00:23:56;;;;;;;10.25;3.65;;;;;;;;;;5094296;28;20052;-74
2021/12/07 00:26:38;;;;;;;9.27;3.70;;;;;;;;;;5083486;28;20048;-74
2021/12/07 00:29:08;;;;;;;6.90;4.00;;;;;;;;;;5057774;28;20071;-74
2021/12/07 00:31:42;;;;;;;11.00;4.20;;;;;;;;;;5076272;28;20053;-74
2021/12/07 00:34:18;;;;;;;7.90;3.88;;;;;;;;;;5037781;28;20056;-74
2021/12/07 00:39:42;;;;;;;12.07;4.70;;;;;;;;;;5040135;28;20056;-74
2021/12/07 00:42:11;;;;;;;10.50;4.38;;;;;;;;;;5038921;28;20159;-74
2021/12/07 00:44:42;;;;;;;9.30;3.33;;;;;;;;;;5032581;28;20079;-74
2021/12/07 00:47:12;;;;;;;7.80;3.35;;;;;;;;;;5034162;28;20415;-74
2021/12/07 00:49:41;;;;;;;9.38;3.72;;;;;;;;;;5038022;28;20049;-74
2021/12/07 00:52:11;;;;;;;9.87;3.73;;;;;;;;;;5070507;28;20419;-74
2021/12/07 00:54:40;;;;;;;10.88;3.40;;;;;;;;;;5070741;28;20056;-74
2021/12/07 00:57:08;;;;;;;7.00;3.00;;;;;;;;;;5044556;28;20462;-74
2021/12/07 00:59:39;;;;;;;12.80;4.32;;;;;;;;;;5037870;28;20057;-74
2021/12/07 01:02:08;;;;;;;10.38;4.60;;;;;;;;;;5035257;28;20380;-74
2021/12/07 01:04:39;;;;;;;14.57;4.83;;;;;;;;;;5053583;28;20486;-74
2021/12/07 01:07:21;;;;;;;8.60;4.18;;;;;;;;;;5030921;28;20052;-74
2021/12/07 01:26:35;;;;;;;9.30;5.45;;;;;;;;;;5072679;28;20052;-74
2021/12/07 01:29:04;;;;;;;10.10;4.00;;;;;;;;;;5048220;28;20053;-75
2021/12/07 01:31:45;;;;;;;8.13;3.73;;;;;;;;;;5055496;28;20106;-74
2021/12/07 01:34:37;;;;;;;10.85;4.03;;;;;;;;;;5033984;28;20041;-74
2021/12/07 01:40:41;;;;;;;8.93;3.22;;;;;;;;;;5036728;28;20079;-74
2021/12/07 01:43:35;;;;;;;7.47;3.47;;;;;;;;;;5053060;28;20466;-74
2021/12/07 02:00:31;;;;;;;6.63;3.27;;;;;;;;;;4999717;28;20044;-74
2021/12/07 02:03:00;;;;;;;6.72;4.18;;;;;;;;;;5047660;28;20124;-74
2021/12/07 02:05:29;;;;;;;10.45;4.07;;;;;;;;;;5039841;28;20160;-74
2021/12/07 02:07:58;;;;;;;11.70;4.47;;;;;;;;;;5059250;28;20053;-74
2021/12/07 02:10:31;;;;;;;10.05;5.45;;;;;;;;;;5059014;28;20077;-74
2021/12/07 02:13:18;;;;;;;5.13;2.77;;;;;;;;;;5059109;28;20483;-74
2021/12/07 02:15:47;;;;;;;7.57;3.17;;;;;;;;;;5051353;28;20478;-74
2021/12/07 02:18:18;;;;;;;8.25;4.15;;;;;;;;;;5031942;28;20507;-74
2021/12/07 02:20:51;;;;;;;7.95;3.78;;;;;;;;;;5052975;28;20083;-74
2021/12/07 02:23:21;;;;;;;13.55;4.70;;;;;;;;;;5071884;28;20072;-74
2021/12/07 02:25:50;;;;;;;6.90;3.33;;;;;;;;;;5036580;28;20506;-74
2021/12/07 02:28:21;;;;;;;10.88;3.72;;;;;;;;;;5036217;28;20145;-74
2021/12/07 02:30:51;;;;;;;10.15;4.05;;;;;;;;;;5032833;28;20081;-74
2021/12/07 02:33:20;;;;;;;7.38;4.15;;;;;;;;;;5055404;28;20501;-74
2021/12/07 02:36:15;;;;;;;7.68;4.40;;;;;;;;;;5055751;28;20510;-74
2021/12/07 02:38:44;;;;;;;8.70;4.67;;;;;;;;;;5052262;28;20057;-74
2021/12/07 02:41:13;;;;;;;11.57;5.25;;;;;;;;;;5031793;28;20049;-74
2021/12/07 02:43:44;;;;;;;10.02;5.20;;;;;;;;;;5046231;28;20053;-74
2021/12/07 02:46:13;;;;;;;7.38;3.13;;;;;;;;;;5050754;28;20060;-74
2021/12/07 02:48:43;;;;;;;8.38;4.13;;;;;;;;;;5053331;28;20474;-74
2021/12/07 02:51:13;;;;;;;9.33;4.20;;;;;;;;;;5049965;28;20052;-74
2021/12/07 02:53:43;;;;;;;6.25;3.42;;;;;;;;;;5050116;28;20048;-75
2021/12/07 02:56:12;;;;;;;8.35;4.20;;;;;;;;;;5070539;28;20044;-75
2021/12/07 02:58:43;;;;;;;10.52;5.03;;;;;;;;;;5051114;28;20550;-74
2021/12/07 03:01:22;;;;;;;8.77;4.75;;;;;;;;;;5075541;28;20048;-75
2021/12/07 03:04:03;;;;;;;15.03;5.13;;;;;;;;;;5059266;28;20048;-74
2021/12/07 03:06:50;;;;;;;10.13;4.22;;;;;;;;;;5060921;28;20048;-75
2021/12/07 03:26:27;;;;;;;12.20;5.63;;;;;;;;;;5058427;28;20155;-74
2021/12/07 03:28:58;;;;;;;12.35;6.50;;;;;;;;;;5069275;28;20048;-74
2021/12/07 03:34:23;;;;;;;13.85;5.55;;;;;;;;;;5059332;28;20140;-74
2021/12/07 03:36:53;;;;;;;12.70;5.75;;;;;;;;;;5063698;28;20048;-74
2021/12/07 03:39:22;;;;;;;11.20;5.50;;;;;;;;;;5059801;28;20102;-74
2021/12/07 03:41:54;;;;;;;15.40;6.88;;;;;;;;;;5077673;28;20061;-75
2021/12/07 03:44:23;;;;;;;14.30;6.30;;;;;;;;;;5064241;28;20108;-74
2021/12/07 03:46:52;;;;;;;12.32;5.90;;;;;;;;;;5038363;28;20111;-74
2021/12/07 03:49:20;;;;;;;11.13;5.68;;;;;;;;;;5035611;28;20056;-74
2021/12/07 03:51:49;;;;;;;10.00;4.57;;;;;;;;;;5034577;28;20103;-74
2021/12/07 03:54:20;;;;;;;11.48;5.60;;;;;;;;;;5050502;28;20072;-74
2021/12/07 03:56:48;;;;;;;10.90;4.93;;;;;;;;;;5034210;28;20052;-75
2021/12/07 03:59:19;;;;;;;14.88;6.78;;;;;;;;;;5057821;28;20091;-74
2021/12/07 04:01:51;;;;;;;12.77;6.30;;;;;;;;;;5047797;28;20076;-74
2021/12/07 04:04:21;;;;;;;11.70;5.03;;;;;;;;;;5017191;28;20057;-74
2021/12/07 04:06:51;;;;;;;11.98;4.80;;;;;;;;;;5014615;28;20064;-74
2021/12/07 04:09:25;;;;;;;13.03;5.80;;;;;;;;;;5014825;28;20046;-75
2021/12/07 04:11:55;;;;;;;15.57;6.28;;;;;;;;;;5014498;28;20051;-74
2021/12/07 04:14:25;;;;;;;17.90;7.20;;;;;;;;;;5027375;28;20048;-74
2021/12/07 04:16:53;;;;;;;14.10;6.53;;;;;;;;;;5055582;28;20063;-74
2021/12/07 04:19:23;;;;;;;8.68;4.70;;;;;;;;;;5049249;28;20055;-74
2021/12/07 04:21:53;;;;;;;9.90;5.27;;;;;;;;;;5039711;28;20052;-74
2021/12/07 04:24:27;;;;;;;18.85;5.90;;;;;;;;;;5040241;28;20071;-74
2021/12/07 04:26:56;;;;;;;13.85;6.13;;;;;;;;;;5056627;28;20128;-74
2021/12/07 04:29:26;;;;;;;14.32;5.43;;;;;;;;;;5061358;28;20045;-74
2021/12/07 04:31:56;;;;;;;9.75;4.53;;;;;;;;;;5053348;28;21052;-75
2021/12/07 04:34:25;;;;;;;16.10;6.63;;;;;;;;;;5052682;28;20105;-74
2021/12/07 04:36:54;;;;;;;9.48;4.65;;;;;;;;;;5053024;28;20062;-74
2021/12/07 04:39:23;;;;;;;17.80;6.82;;;;;;;;;;5037067;28;20041;-74
2021/12/07 04:41:53;;;;;;;12.07;5.50;;;;;;;;;;5060953;28;20052;-74
2021/12/07 04:44:23;;;;;;;11.00;4.32;;;;;;;;;;5042431;28;20053;-74
2021/12/07 04:47:05;;;;;;;14.53;6.17;;;;;;;;;;5049332;28;20076;-74
2021/12/07 04:58:26;;;;;;;9.90;5.75;;;;;;;;;;4953378;28;20094;-74
2021/12/07 05:00:55;;;;;;;13.73;5.53;;;;;;;;;;5011967;28;20094;-74
2021/12/07 05:03:27;;;;;;;8.90;5.03;;;;;;;;;;5044663;28;20049;-74
2021/12/07 05:05:56;;;;;;;15.00;5.82;;;;;;;;;;5049029;28;20487;-74
2021/12/07 05:08:36;;;;;;;13.07;5.47;;;;;;;;;;5037294;28;20049;-74
2021/12/07 05:14:13;;;;;;;9.63;3.93;;;;;;;;;;5030590;28;20508;-74
2021/12/07 05:16:52;;;;;;;11.23;5.78;;;;;;;;;;5056965;28;20058;-74
2021/12/07 05:39:47;;;;;;;7.30;3.28;;;;;;;;;;5021550;28;20045;-71
2021/12/07 05:42:16;;;;;;;8.10;4.47;;;;;;;;;;5048867;28;20041;-74
2021/12/07 05:44:45;;;;;;;10.65;4.55;;;;;;;;;;5055874;28;20099;-81
2021/12/07 05:47:16;;;;;;;9.90;4.70;;;;;;;;;;5064425;28;20041;-81
2021/12/07 05:49:45;;;;;;;10.35;4.53;;;;;;;;;;5048985;28;20037;-81
2021/12/07 05:52:15;;;;;;;9.68;4.65;;;;;;;;;;5056701;28;20057;-75
2021/12/07 05:54:44;;;;;;;10.13;3.83;;;;;;;;;;5036410;28;20395;-74
2021/12/07 05:57:14;;;;;;;9.85;3.78;;;;;;;;;;5025063;28;20376;-74
2021/12/07 05:59:43;;;;;;;8.35;4.85;;;;;;;;;;5048802;28;20388;-73
2021/12/07 06:02:12;;;;;;;7.50;3.95;;;;;;;;;;5045313;28;20049;-73
2021/12/07 06:04:41;;;;;;;10.10;3.70;;;;;;;;;;5034070;28;20049;-74
2021/12/07 06:07:10;;;;;;;10.10;4.53;;;;;;;;;;5047234;28;20044;-74
2021/12/07 06:09:40;;;;;;;8.05;3.67;;;;;;;;;;5052833;28;20082;-73
2021/12/07 06:12:09;;;;;;;7.57;3.40;;;;;;;;;;5039098;28;20481;-71
2021/12/07 06:14:43;;;;;;;6.97;3.33;;;;;;;;;;5042813;28;20037;-72
2021/12/07 06:20:06;;;;;;;5.47;2.97;;;;;;;;;;5050097;28;20064;-71
2021/12/07 06:22:35;;;;;;;9.02;3.63;;;;;;;;;;5052016;28;20040;-71
2021/12/07 06:25:30;;;;;;;9.98;3.67;;;;;;;;;;5049405;28;20400;-71
2021/12/07 06:27:59;;;;;;;7.28;3.10;;;;;;;;;;5051400;28;20057;-71
2021/12/07 06:30:29;;;;;;;7.03;2.80;;;;;;;;;;5025607;28;20095;-71
2021/12/07 06:32:58;;;;;;;5.50;2.20;;;;;;;;;;5034885;28;20049;-71
2021/12/07 06:35:28;;;;;;;5.80;2.40;;;;;;;;;;5032456;28;20046;-71
2021/12/07 06:37:57;;;;;;;6.47;1.35;;;;;;;;;;5032685;28;20068;-71
2021/12/07 06:40:25;;;;;;;5.82;1.30;;;;;;;;;;5035105;28;20052;-70
2021/12/07 06:42:59;;;;;;;2.35;0.98;;;;;;;;;;5051871;28;20088;-71
2021/12/07 06:45:29;;;;;;;4.03;1.17;;;;;;;;;;5042948;28;20091;-71
2021/12/07 06:47:59;;;;;;;3.83;1.45;;;;;;;;;;5035438;28;20144;-70
2021/12/07 06:50:53;;;;;;;4.45;1.63;;;;;;;;;;5051904;28;20049;-71
2021/12/07 06:53:22;;;;;;;2.92;0.85;;;;;;;;;;5044994;28;20380;-71
2021/12/07 06:55:51;;;;;;;4.00;1.55;;;;;;;;;;5051654;28;20049;-71
2021/12/07 06:58:21;;;;;;;1.90;0.77;;;;;;;;;;5052030;28;20049;-71
2021/12/07 07:00:50;;;;;;;2.85;1.02;;;;;;;;;;5044149;28;20051;-71
2021/12/07 07:03:18;;;;;;;3.40;1.27;;;;;;;;;;5044536;28;20115;-71
2021/12/07 07:05:47;;;;;;;3.33;1.25;;;;;;;;;;5031597;28;20487;-71
2021/12/07 07:08:15;;;;;;;2.08;0.68;;;;;;;;;;5031840;28;20041;-70
2021/12/07 07:10:44;;;;;;;2.83;0.90;;;;;;;;;;5031790;28;20061;-71
2021/12/07 07:13:14;;;;;;;4.57;1.52;;;;;;;;;;5035633;28;20072;-71
2021/12/07 07:15:49;;;;;;;2.22;0.88;;;;;;;;;;5031244;28;20414;-71
2021/12/07 07:18:18;;;;;;;3.15;1.50;;;;;;;;;;5057297;28;20106;-71
2021/12/07 07:21:12;;;;;;;2.50;0.75;;;;;;;;;;5067682;28;20052;-77
2021/12/07 07:23:42;;;;;;;2.57;0.90;;;;;;;;;;5085509;28;20051;-70
2021/12/07 07:26:11;;;;;;;2.80;1.02;;;;;;;;;;5062361;28;20076;-70
2021/12/07 07:28:40;;;;;;;3.60;1.05;;;;;;;;;;5069348;28;20402;-71
2021/12/07 07:31:11;;;;;;;3.88;1.35;;;;;;;;;;5065019;28;20048;-71
2021/12/07 07:33:40;;;;;;;3.88;1.20;;;;;;;;;;5059388;28;20164;-71
2021/12/07 07:36:10;;;;;;;2.27;1.00;;;;;;;;;;5037038;28;20033;-71
2021/12/07 07:38:39;;;;;;;3.35;1.42;;;;;;;;;;5063842;28;20052;-71
2021/12/07 07:41:08;;;;;;;6.13;1.20;;;;;;;;;;5067660;28;20053;-71
2021/12/07 07:43:37;;;;;;;3.72;1.10;;;;;;;;;;5084154;28;20049;-71
2021/12/07 07:46:15;;;;;;;4.78;0.88;;;;;;;;;;5043616;28;20053;-71
2021/12/07 07:48:46;;;;;;;2.53;1.00;;;;;;;;;;5033983;28;20102;-70
2021/12/07 07:51:15;;;;;;;2.63;0.95;;;;;;;;;;5050842;28;20048;-71
2021/12/07 07:53:45;;;;;;;4.18;1.20;;;;;;;;;;5063214;28;20098;-71
2021/12/07 07:56:14;;;;;;;3.60;1.88;;;;;;;;;;5069094;28;20076;-71
2021/12/07 07:59:08;;;;;;;3.92;1.13;;;;;;;;;;5048918;28;20051;-70
2021/12/07 08:01:42;;;;;;;2.57;1.10;;;;;;;;;;5057205;28;20065;-71
2021/12/07 08:04:11;;;;;;;2.85;0.95;;;;;;;;;;5053081;28;20484;-70
2021/12/07 08:06:41;;;;;;;2.88;1.00;;;;;;;;;;5030853;28;20060;-71
2021/12/07 08:09:10;;;;;;;2.85;1.10;;;;;;;;;;5060701;28;20090;-70
2021/12/07 08:11:39;;;;;;;3.05;1.00;;;;;;;;;;5038428;28;20041;-71
2021/12/07 08:14:07;;;;;;;2.07;0.73;;;;;;;;;;5069579;28;20078;-71
2021/12/07 08:16:37;;;;;;;5.22;1.17;;;;;;;;;;5044197;28;20073;-70
2021/12/07 08:19:08;;;;;;;2.95;1.15;;;;;;;;;;5042875;28;20052;-71
2021/12/07 08:21:37;;;;;;;2.63;1.10;;;;;;;;;;5042643;28;20145;-71
2021/12/07 08:24:06;;;;;;;3.90;0.95;;;;;;;;;;5047909;28;20065;-71
2021/12/07 08:26:35;;;;;;;3.00;0.83;;;;;;;;;;5043763;28;20053;-71
2021/12/07 08:29:03;;;;;;;1.98;0.55;;;;;;;;;;5049163;28;20060;-71
2021/12/07 08:31:33;;;;;;;2.88;1.33;;;;;;;;;;5036432;28;20068;-71
2021/12/07 08:34:02;;;;;;;7.53;1.42;;;;;;;;;;5033020;28;20073;-71
2021/12/07 08:36:33;;;;;;;2.28;1.05;;;;;;;;;;5046472;28;20045;-70
2021/12/07 08:39:02;;;;;;;8.33;1.73;;;;;;;;;;5041261;28;20044;-71
2021/12/07 08:41:32;;;;;;;4.95;1.15;;;;;;;;;;5047197;28;20068;-71
2021/12/07 08:44:00;;;;;;;2.88;1.15;;;;;;;;;;5045406;28;20053;-70
2021/12/07 08:46:29;;;;;;;3.45;1.08;;;;;;;;;;5045445;28;20505;-71
2021/12/07 08:48:58;;;;;;;2.58;0.93;;;;;;;;;;5041992;28;20056;-71
2021/12/07 08:51:26;;;;;;;7.43;1.03;;;;;;;;;;5049232;28;20439;-71
2021/12/07 08:54:02;;;;;;;5.05;1.02;;;;;;;;;;5036441;28;20049;-75
2021/12/07 08:59:40;;;;;;;7.30;1.00;;;;;;;;;;5052405;28;20422;-71
2021/12/07 09:02:09;;;;;;;1.80;0.57;;;;;;;;;;5075412;28;20072;-70
2021/12/07 09:04:38;;;;;;;4.87;1.10;;;;;;;;;;5088931;28;20092;-71
2021/12/07 09:07:07;;;;;;;1.67;0.60;;;;;;;;;;5073349;28;20057;-71
2021/12/07 09:09:37;;;;;;;2.70;0.70;;;;;;;;;;5072978;28;20044;-70
2021/12/07 09:12:07;;;;;;;9.00;1.58;;;;;;;;;;5057243;28;20044;-70
2021/12/07 09:14:36;;;;;;;2.17;1.08;;;;;;;;;;5066422;28;20049;-70
2021/12/07 09:17:06;;;;;;;2.57;0.80;;;;;;;;;;5051036;28;20049;-70
2021/12/07 09:20:01;;;;;;;5.47;1.10;;;;;;;;;;5078927;28;20045;-70
2021/12/07 09:22:30;;;;;;;2.10;0.60;;;;;;;;;;5072846;28;20037;-70
2021/12/07 09:25:02;;;;;;;20.27;1.63;;;;;;;;;;5070827;28;20036;-70
2021/12/07 09:27:31;;;;;;;2.40;0.75;;;;;;;;;;5070611;28;20110;-71
2021/12/07 09:30:29;;;;;;;8.53;1.80;;;;;;;;;;5054432;28;20060;-74
2021/12/07 09:32:59;;;;;;;5.63;1.27;;;;;;;;;;5069723;28;20056;-71
2021/12/07 09:35:28;;;;;;;5.72;1.25;;;;;;;;;;5052880;28;20131;-71
2021/12/07 09:37:58;;;;;;;7.00;1.63;;;;;;;;;;5070210;28;20101;-71
2021/12/07 09:40:29;;;;;;;3.47;1.08;;;;;;;;;;5067585;28;20048;-71
2021/12/07 09:42:59;;;;;;;4.70;1.57;;;;;;;;;;5071197;28;20410;-71
2021/12/07 09:45:31;;;;;;;5.03;1.52;;;;;;;;;;5063732;28;20074;-70
2021/12/07 09:48:00;;;;;;;2.42;1.00;;;;;;;;;;5066892;28;20476;-71
2021/12/07 09:50:30;;;;;;;4.25;2.13;;;;;;;;;;5052477;28;20119;-71
2021/12/07 09:52:58;;;;;;;2.80;1.00;;;;;;;;;;5053077;28;20474;-71
2021/12/07 09:55:29;;;;;;;5.10;1.00;;;;;;;;;;5072616;28;20161;-71
2021/12/07 09:58:01;;;;;;;2.83;1.00;;;;;;;;;;5086798;28;20410;-70
2021/12/07 10:00:34;;;;;;;2.58;1.15;;;;;;;;;;5068212;28;20048;-70
2021/12/07 10:03:03;;;;;;;3.63;1.17;;;;;;;;;;5054990;28;20128;-71
2021/12/07 10:05:34;;;;;;;4.80;1.00;;;;;;;;;;5069816;28;20057;-71
2021/12/07 10:08:04;;;;;;;2.57;1.00;;;;;;;;;;5072009;28;20045;-71
2021/12/07 10:10:36;;;;;;;5.68;1.15;;;;;;;;;;5071791;28;20049;-71
2021/12/07 10:13:06;;;;;;;2.60;1.15;;;;;;;;;;5069178;28;20136;-71
2021/12/07 10:15:35;;;;;;;3.78;1.30;;;;;;;;;;5066758;28;23601;-70
2021/12/07 10:18:31;;;;;;;7.60;1.42;;;;;;;;;;5071174;28;20056;-70
2021/12/07 10:21:14;;;;;;;6.37;0.90;;;;;;;;;;5060046;28;20564;-71
2021/12/07 10:23:44;;;;;;;6.13;1.45;;;;;;;;;;5071687;28;20040;-71
2021/12/07 10:26:16;;;;;;;3.08;0.80;;;;;;;;;;5067183;28;20040;-70
2021/12/07 10:28:48;;;;;;;2.92;1.20;;;;;;;;;;5068369;28;20094;-74
2021/12/07 10:34:16;;;;;;;8.77;1.23;;;;;;;;;;5065786;28;20133;-70
2021/12/07 10:36:46;;;;;;;2.47;0.95;;;;;;;;;;5036943;28;20052;-71
2021/12/07 10:39:16;;;;;;;3.00;0.90;;;;;;;;;;5068974;28;20060;-71
2021/12/07 10:41:48;;;;;;;3.95;1.25;;;;;;;;;;5042280;28;20157;-71
2021/12/07 10:47:12;;;;;;;2.47;0.90;;;;;;;;;;5067739;28;20479;-76
2021/12/07 10:49:43;;;;;;;6.35;1.55;;;;;;;;;;5040211;28;20565;-70
2021/12/07 10:52:20;;;;;;;3.88;1.17;;;;;;;;;;5036175;28;20132;-70
2021/12/07 10:54:51;;;;;;;3.45;1.00;;;;;;;;;;5044679;28;20128;-70
2021/12/07 10:57:23;;;;;;;4.72;1.00;;;;;;;;;;5058186;28;20045;-70
2021/12/07 11:00:20;;;;;;;2.47;0.90;;;;;;;;;;5040505;28;20080;-72
2021/12/07 11:02:51;;;;;;;2.67;0.82;;;;;;;;;;5006403;28;21080;-71
2021/12/07 11:05:22;;;;;;;2.42;0.70;;;;;;;;;;5050393;28;20064;-71
2021/12/07 11:07:52;;;;;;;2.97;1.05;;;;;;;;;;5050320;28;20040;-71
2021/12/07 11:10:28;;;;;;;3.75;1.00;;;;;;;;;;5053448;28;20960;-70
2021/12/07 11:13:01;;;;;;;4.87;1.00;;;;;;;;;;5047712;28;20045;-71
2021/12/07 11:15:33;;;;;;;3.25;0.80;;;;;;;;;;5048220;28;20135;-71
2021/12/07 11:18:05;;;;;;;4.28;0.88;;;;;;;;;;5070251;28;20060;-71
2021/12/07 11:20:38;;;;;;;7.13;1.38;;;;;;;;;;5066987;28;20072;-70
2021/12/07 11:23:11;;;;;;;2.00;0.68;;;;;;;;;;5082864;28;20086;-71
2021/12/07 11:34:14;;;;;;;2.70;0.98;;;;;;;;;;5067122;28;20524;-70
2021/12/07 11:36:45;;;;;;;2.55;1.15;;;;;;;;;;5075909;28;20444;-70
2021/12/07 11:39:20;;;;;;;1.63;0.70;;;;;;;;;;5076936;28;20499;-72
2021/12/07 11:41:51;;;;;;;7.53;1.13;;;;;;;;;;5052405;28;20060;-71
2021/12/07 11:44:22;;;;;;;5.63;1.30;;;;;;;;;;5064232;28;20053;-70
2021/12/07 11:46:51;;;;;;;1.95;0.80;;;;;;;;;;5049212;28;20057;-71
2021/12/07 11:49:21;;;;;;;11.23;1.50;;;;;;;;;;5074560;28;20545;-71
2021/12/07 11:51:51;;;;;;;7.70;1.80;;;;;;;;;;5077439;28;20479;-71
2021/12/07 11:54:21;;;;;;;4.93;1.10;;;;;;;;;;5073059;28;20048;-71
2021/12/07 11:56:52;;;;;;;3.03;1.20;;;;;;;;;;5057230;28;20446;-71
2021/12/07 11:59:22;;;;;;;4.28;1.40;;;;;;;;;;5086287;28;20052;-71
2021/12/07 12:01:51;;;;;;;2.42;0.70;;;;;;;;;;5072565;28;20505;-70
2021/12/07 12:04:21;;;;;;;7.27;1.83;;;;;;;;;;5081016;28;20148;-71
2021/12/07 12:06:51;;;;;;;6.88;1.17;;;;;;;;;;5056361;28;20041;-70
2021/12/07 12:09:21;;;;;;;4.13;1.05;;;;;;;;;;5054781;28;20117;-70
2021/12/07 12:11:53;;;;;;;4.22;1.10;;;;;;;;;;5078534;28;20071;-70
2021/12/07 12:14:37;;;;;;;4.22;1.50;;;;;;;;;;5070593;28;20498;-71
2021/12/07 12:20:07;;;;;;;10.07;1.35;;;;;;;;;;5075899;28;20125;-71
2021/12/07 12:22:38;;;;;;;3.35;1.25;;;;;;;;;;5068830;28;20040;-71
2021/12/07 12:25:31;;;;;;;2.30;1.27;;;;;;;;;;5062697;28;20123;-71
2021/12/07 12:28:00;;;;;;;7.85;1.55;;;;;;;;;;5064827;28;20105;-70
2021/12/07 12:30:32;;;;;;;4.17;1.03;;;;;;;;;;5070036;28;20064;-72
2021/12/07 12:33:04;;;;;;;4.63;1.23;;;;;;;;;;5067707;28;20051;-71
2021/12/07 12:35:38;;;;;;;2.75;0.80;;;;;;;;;;5068473;28;20051;-71
2021/12/07 12:38:16;;;;;;;6.82;1.00;;;;;;;;;;5062062;28;20090;-71
2021/12/07 12:40:54;;;;;;;2.38;0.60;;;;;;;;;;5069391;28;20474;-71
2021/12/07 12:43:33;;;;;;;3.60;1.33;;;;;;;;;;5065902;28;20059;-71
2021/12/07 12:46:06;;;;;;;3.90;0.98;;;;;;;;;;5064885;28;20045;-71
2021/12/07 12:48:36;;;;;;;2.70;1.10;;;;;;;;;;5073276;28;20079;-71
2021/12/07 12:51:09;;;;;;;4.55;1.10;;;;;;;;;;5063192;28;20147;-71
2021/12/07 12:54:03;;;;;;;4.63;1.13;;;;;;;;;;5072091;28;20105;-71
2021/12/07 12:56:36;;;;;;;6.17;2.23;;;;;;;;;;5056740;28;20044;-70
2021/12/07 12:59:07;;;;;;;2.17;0.80;;;;;;;;;;5069420;28;20048;-71
2021/12/07 13:01:38;;;;;;;4.40;1.25;;;;;;;;;;5080254;28;20048;-71
2021/12/07 13:04:13;;;;;;;2.13;0.80;;;;;;;;;;5075409;28;20060;-71
2021/12/07 13:07:00;;;;;;;10.07;0.80;;;;;;;;;;5092059;28;20044;-71
2021/12/07 13:09:57;;;;;;;4.63;1.37;;;;;;;;;;5072698;28;20139;-70
2021/12/07 13:12:28;;;;;;;4.70;1.52;;;;;;;;;;5076539;28;20059;-71
2021/12/07 13:14:59;;;;;;;2.08;0.50;;;;;;;;;;5075952;28;20049;-71
2021/12/07 13:17:31;;;;;;;8.63;1.10;;;;;;;;;;5069699;28;20084;-71
2021/12/07 13:20:12;;;;;;;3.30;0.70;;;;;;;;;;5086586;28;20387;-71
2021/12/07 13:22:47;;;;;;;4.10;1.40;;;;;;;;;;5077696;28;20044;-71
2021/12/07 13:25:17;;;;;;;4.47;0.90;;;;;;;;;;5070411;28;20128;-71
2021/12/07 13:28:10;;;;;;;2.33;1.10;;;;;;;;;;5054760;28;20045;-71
2021/12/07 13:30:49;;;;;;;3.55;1.05;;;;;;;;;;5054855;28;20646;-71
2021/12/07 13:33:20;;;;;;;7.38;1.40;;;;;;;;;;5076445;28;20053;-74
2021/12/07 13:36:32;;;;;;;3.60;1.13;;;;;;;;;;5072335;28;20047;-71
2021/12/07 13:39:07;;;;;;;4.55;0.90;;;;;;;;;;5090473;28;20068;-71
2021/12/07 13:41:46;;;;;;;4.53;0.80;;;;;;;;;;5071243;28;20083;-71
2021/12/07 13:44:16;;;;;;;2.88;1.15;;;;;;;;;;5071738;28;20131;-71
2021/12/07 13:46:45;;;;;;;2.63;0.60;;;;;;;;;;5074514;28;20048;-71
2021/12/07 13:49:15;;;;;;;6.23;0.90;;;;;;;;;;5055545;28;20062;-71
2021/12/07 13:51:45;;;;;;;4.20;1.20;;;;;;;;;;5075529;28;20102;-70
2021/12/07 13:54:16;;;;;;;3.67;0.95;;;;;;;;;;5063826;28;20127;-71
2021/12/07 13:56:44;;;;;;;7.32;1.08;;;;;;;;;;5079131;28;20055;-71
2021/12/07 13:59:14;;;;;;;2.15;0.93;;;;;;;;;;5074732;28;20051;-70
2021/12/07 14:01:48;;;;;;;1.93;0.77;;;;;;;;;;5077473;28;20447;-70
2021/12/07 14:04:19;;;;;;;1.73;0.68;;;;;;;;;;5076374;28;20581;-71
2021/12/07 14:06:48;;;;;;;2.85;0.82;;;;;;;;;;5068977;28;20048;-71
2021/12/07 14:09:17;;;;;;;5.82;1.23;;;;;;;;;;5072435;28;20052;-71
2021/12/07 14:11:52;;;;;;;2.53;1.10;;;;;;;;;;5072547;28;20044;-70
2021/12/07 14:14:21;;;;;;;2.20;0.70;;;;;;;;;;5085361;28;20054;-71
2021/12/07 14:16:50;;;;;;;6.07;0.93;;;;;;;;;;5086368;28;20059;-71
2021/12/07 14:19:22;;;;;;;2.72;0.80;;;;;;;;;;5076017;28;20049;-71
2021/12/07 14:21:51;;;;;;;2.83;1.05;;;;;;;;;;5069629;28;20056;-71
2021/12/07 14:24:21;;;;;;;4.88;0.95;;;;;;;;;;5071400;28;20056;-71
2021/12/07 14:26:51;;;;;;;3.77;1.40;;;;;;;;;;5091840;28;20052;-71
2021/12/07 14:29:22;;;;;;;3.20;1.38;;;;;;;;;;5068973;28;20071;-71
2021/12/07 14:31:52;;;;;;;3.85;1.35;;;;;;;;;;5092878;28;20083;-71
2021/12/07 14:34:24;;;;;;;4.55;0.93;;;;;;;;;;5083939;28;20091;-71
2021/12/07 14:36:55;;;;;;;6.40;1.27;;;;;;;;;;5080484;28;20562;-71
2021/12/07 14:39:26;;;;;;;9.80;2.07;;;;;;;;;;5091281;28;20516;-70
2021/12/07 14:41:56;;;;;;;2.95;1.20;;;;;;;;;;5076832;28;20049;-71
2021/12/07 14:44:27;;;;;;;3.00;1.00;;;;;;;;;;5071821;28;20053;-71
2021/12/07 14:46:56;;;;;;;3.97;1.15;;;;;;;;;;5075643;28;20060;-71
2021/12/07 14:49:29;;;;;;;6.05;0.70;;;;;;;;;;5089186;28;20052;-70
2021/12/07 14:51:58;;;;;;;5.33;1.17;;;;;;;;;;5078861;28;20054;-71
2021/12/07 14:54:28;;;;;;;2.70;0.98;;;;;;;;;;5085307;28;20036;-74
2021/12/07 14:56:57;;;;;;;2.83;0.88;;;;;;;;;;5053272;28;20040;-71
2021/12/07 14:59:26;;;;;;;5.50;0.75;;;;;;;;;;5068696;28;20106;-71
2021/12/07 15:01:56;;;;;;;4.20;1.48;;;;;;;;;;5060352;28;20053;-71
2021/12/07 15:04:27;;;;;;;2.93;0.90;;;;;;;;;;5059814;28;20491;-71
2021/12/07 15:06:58;;;;;;;5.88;1.00;;;;;;;;;;5065803;28;20056;-71
2021/12/07 15:09:27;;;;;;;4.70;1.10;;;;;;;;;;5076377;28;20053;-74
2021/12/07 15:11:57;;;;;;;2.75;0.80;;;;;;;;;;5054557;28;20060;-77
2021/12/07 15:14:28;;;;;;;3.67;1.02;;;;;;;;;;5067163;28;20053;-77
2021/12/07 15:17:00;;;;;;;5.57;1.30;;;;;;;;;;5033043;28;20123;-70
2021/12/07 15:19:31;;;;;;;4.40;1.00;;;;;;;;;;5044841;28;20128;-71
2021/12/07 15:22:02;;;;;;;4.18;0.90;;;;;;;;;;5067316;28;20051;-70
2021/12/07 15:24:36;;;;;;;4.45;1.73;;;;;;;;;;5057309;28;20048;-71
2021/12/07 15:27:06;;;;;;;4.95;1.50;;;;;;;;;;5035903;28;20135;-70
2021/12/07 15:29:35;;;;;;;3.97;1.17;;;;;;;;;;5052983;28;20052;-74
2021/12/07 15:32:06;;;;;;;5.05;1.33;;;;;;;;;;5047746;28;20093;-76
2021/12/07 15:34:39;;;;;;;3.72;1.05;;;;;;;;;;5034447;28;20515;-70
2021/12/07 15:37:09;;;;;;;7.80;1.70;;;;;;;;;;5067472;28;20092;-72
2021/12/07 15:39:40;;;;;;;3.92;1.20;;;;;;;;;;5053991;28;20044;-75
2021/12/07 15:42:11;;;;;;;5.00;0.97;;;;;;;;;;5033962;28;20041;-75
2021/12/07 15:44:41;;;;;;;3.97;1.10;;;;;;;;;;5045568;28;20053;-76
2021/12/07 15:47:11;;;;;;;7.47;1.20;;;;;;;;;;5031728;28;20069;-77
2021/12/07 15:49:43;;;;;;;7.18;1.70;;;;;;;;;;5029608;28;20463;-70
2021/12/07 15:52:37;;;;;;;5.88;1.40;;;;;;;;;;5043339;28;20053;-71
2021/12/07 15:55:15;;;;;;;5.70;1.93;;;;;;;;;;5037287;28;20052;-71
2021/12/07 15:57:46;;;;;;;4.90;1.77;;;;;;;;;;5067133;28;20087;-72
2021/12/07 16:00:16;;;;;;;5.90;1.42;;;;;;;;;;5050898;28;20064;-77
2021/12/07 16:02:55;;;;;;;3.97;1.55;;;;;;;;;;5031711;28;20038;-78
2021/12/07 16:05:46;;;;;;;3.25;1.23;;;;;;;;;;5059226;28;20050;-76
2021/12/07 16:08:18;;;;;;;3.90;1.63;;;;;;;;;;5050580;28;20054;-76
2021/12/07 16:10:47;;;;;;;7.93;1.55;;;;;;;;;;5041189;28;20049;-73
2021/12/07 16:13:17;;;;;;;7.63;1.17;;;;;;;;;;5038871;28;20040;-75
2021/12/07 16:18:42;;;;;;;5.68;1.20;;;;;;;;;;5050200;28;20060;-73
2021/12/07 16:21:15;;;;;;;4.53;1.27;;;;;;;;;;5054240;28;20051;-73
2021/12/07 16:23:45;;;;;;;5.10;1.40;;;;;;;;;;5062358;28;20048;-72
2021/12/07 16:26:19;;;;;;;4.88;1.45;;;;;;;;;;5058593;28;20457;-78
2021/12/07 16:28:51;;;;;;;3.10;1.05;;;;;;;;;;5068923;28;20131;-73
2021/12/07 16:31:22;;;;;;;3.63;1.02;;;;;;;;;;5051821;28;20139;-72
2021/12/07 16:34:17;;;;;;;4.40;1.70;;;;;;;;;;5066567;28;20410;-71
2021/12/07 16:36:48;;;;;;;2.97;1.08;;;;;;;;;;5068826;28;20056;-80
2021/12/07 16:39:18;;;;;;;7.60;1.65;;;;;;;;;;5067137;28;20108;-72
2021/12/07 16:41:47;;;;;;;3.38;0.95;;;;;;;;;;5047550;28;20041;-71
2021/12/07 16:44:16;;;;;;;4.50;1.30;;;;;;;;;;5043406;28;20052;-72
2021/12/07 16:46:47;;;;;;;8.43;1.90;;;;;;;;;;5042960;28;20458;-70
2021/12/07 16:49:15;;;;;;;10.50;2.05;;;;;;;;;;5042567;28;20063;-76
2021/12/07 16:51:45;;;;;;;5.93;1.95;;;;;;;;;;5036570;28;20059;-76
2021/12/07 16:54:16;;;;;;;5.03;1.58;;;;;;;;;;5037334;28;20056;-70
2021/12/07 16:56:45;;;;;;;10.52;1.95;;;;;;;;;;5039852;28;20114;-70
2021/12/07 16:59:14;;;;;;;4.67;1.90;;;;;;;;;;5049509;28;20044;-71
2021/12/07 17:01:44;;;;;;;8.93;1.75;;;;;;;;;;5046907;28;20086;-73
2021/12/07 17:04:13;;;;;;;8.95;1.65;;;;;;;;;;5050830;28;20068;-72
2021/12/07 17:06:42;;;;;;;7.70;1.50;;;;;;;;;;5071892;28;20460;-72